Time;durP1;ratioP1;P1;durP2;ratioP2;P2;SDS_P1;SDS_P2;PMS_P1;PMS_P2;Temp;Humidity;BMP_temperature;BMP_pressure;BME280_temperature;BME280_humidity;BME280_pressure;Samples;Min_cycle;Max_cycle;Signal;HPM_P1;HPM_P2
2021/01/01 00:01:54;;;;;;;64.75;40.20;;;;;;;11.70;nan;100025.81;4997878;28;96893;-70
2021/01/01 00:04:21;;;;;;;67.20;40.55;;;;;;;11.67;nan;100028.34;4998080;28;98034;-71
2021/01/01 00:06:50;;;;;;;62.83;39.85;;;;;;;11.63;nan;100021.16;4995653;28;97104;-73
2021/01/01 00:09:18;;;;;;;65.00;39.15;;;;;;;11.66;nan;100018.66;4993758;28;96869;-69
2021/01/01 00:11:48;;;;;;;75.47;46.28;;;;;;;11.68;nan;100016.06;4996995;28;97615;-72
2021/01/01 00:14:15;;;;;;;84.22;48.30;;;;;;;11.72;nan;100016.25;4979091;28;97343;-70
2021/01/01 00:16:44;;;;;;;76.80;44.58;;;;;;;11.72;nan;100011.00;4979274;28;102662;-70
2021/01/01 00:19:13;;;;;;;72.13;43.20;;;;;;;11.72;nan;100010.09;4995943;28;97595;-69
2021/01/01 00:21:40;;;;;;;71.13;42.58;;;;;;;11.73;nan;100014.53;4979583;28;97064;-69
2021/01/01 00:24:08;;;;;;;63.45;39.67;;;;;;;11.74;nan;100018.94;4997145;28;97862;-69
2021/01/01 00:26:36;;;;;;;67.57;37.97;;;;;;;11.70;nan;100020.56;4997948;28;98344;-69
2021/01/01 00:29:03;;;;;;;62.10;36.53;;;;;;;11.65;nan;100026.50;4999836;28;97456;-70
2021/01/01 00:31:31;;;;;;;54.58;33.17;;;;;;;11.62;nan;100013.19;5000604;28;98182;-72
2021/01/01 00:33:58;;;;;;;52.83;32.38;;;;;;;11.62;nan;100008.84;4998711;28;98101;-69
2021/01/01 00:36:27;;;;;;;60.00;35.22;;;;;;;11.66;nan;100018.66;4998049;28;98973;-71
2021/01/01 00:38:55;;;;;;;56.97;32.83;;;;;;;11.65;nan;100022.13;5000336;28;97228;-69
2021/01/01 00:41:29;;;;;;;49.53;31.15;;;;;;;11.65;nan;100019.50;5000615;28;96876;-70
2021/01/01 00:43:58;;;;;;;49.78;30.35;;;;;;;11.66;nan;100020.41;5000880;28;98093;-68
2021/01/01 00:46:27;;;;;;;45.17;28.42;;;;;;;11.67;nan;100025.72;5000934;28;99029;-70
2021/01/01 00:48:57;;;;;;;39.15;27.45;;;;;;;11.70;nan;100019.66;4986955;28;97640;-69
2021/01/01 00:51:26;;;;;;;48.75;29.60;;;;;;;11.70;nan;100025.81;4971646;28;97251;-69
2021/01/01 00:53:54;;;;;;;41.10;27.80;;;;;;;11.70;nan;100028.44;5004850;28;97423;-69
2021/01/01 00:56:22;;;;;;;44.00;27.55;;;;;;;11.72;nan;100029.41;4983586;28;97875;-69
2021/01/01 00:58:50;;;;;;;46.25;28.42;;;;;;;11.74;nan;100021.56;5001231;28;98535;-69
2021/01/01 01:01:19;;;;;;;45.30;27.48;;;;;;;11.71;nan;100021.47;5001630;28;97665;-68
2021/01/01 01:03:46;;;;;;;45.85;28.25;;;;;;;11.71;nan;100017.09;4982108;28;98600;-69
2021/01/01 01:06:14;;;;;;;40.88;27.05;;;;;;;11.70;nan;100031.09;4999747;28;97176;-70
2021/01/01 01:08:42;;;;;;;42.67;27.00;;;;;;;11.71;nan;100032.91;4999030;28;97230;-69
2021/01/01 01:11:10;;;;;;;36.97;26.00;;;;;;;11.71;nan;100027.63;5000618;28;97205;-67
2021/01/01 01:13:37;;;;;;;42.90;27.77;;;;;;;11.71;nan;100030.25;4999961;28;97841;-71
2021/01/01 01:16:05;;;;;;;43.10;27.02;;;;;;;11.71;nan;100035.53;5000030;28;97967;-69
2021/01/01 01:18:33;;;;;;;49.50;31.15;;;;;;;11.72;nan;100042.56;4998201;28;98993;-68
2021/01/01 01:21:01;;;;;;;66.38;37.88;;;;;;;11.71;nan;100043.41;4999599;28;97535;-69
2021/01/01 01:23:29;;;;;;;78.75;43.35;;;;;;;11.70;nan;100043.34;4999609;28;98684;-70
2021/01/01 01:25:57;;;;;;;69.93;42.85;;;;;;;11.72;nan;100041.66;4981559;28;99041;-70
2021/01/01 01:28:25;;;;;;;72.55;40.95;;;;;;;11.70;nan;100041.59;4999631;28;98154;-69
2021/01/01 01:30:52;;;;;;;75.05;44.53;;;;;;;11.70;nan;100038.97;4999641;28;97830;-70
2021/01/01 01:33:20;;;;;;;62.90;39.47;;;;;;;11.73;nan;100041.72;4999653;28;99089;-71
2021/01/01 01:35:48;;;;;;;61.22;37.95;;;;;;;11.76;nan;100043.56;5001014;28;97640;-69
2021/01/01 01:38:15;;;;;;;63.67;37.42;;;;;;;11.77;nan;100051.50;5000400;28;97983;-70
2021/01/01 01:40:43;;;;;;;64.20;36.55;;;;;;;11.77;nan;100050.63;4982658;28;97601;-69
2021/01/01 01:43:11;;;;;;;55.17;33.35;;;;;;;11.78;nan;100048.06;4999947;28;98186;-70
2021/01/01 01:45:39;;;;;;;57.97;35.05;;;;;;;11.81;nan;100048.16;4998618;28;97468;-69
2021/01/01 01:48:08;;;;;;;50.85;31.98;;;;;;;11.81;nan;100044.63;4981045;28;97217;-69
2021/01/01 01:50:36;;;;;;;51.67;33.42;;;;;;;11.80;nan;100049.00;4999865;28;97285;-69
2021/01/01 01:53:04;;;;;;;54.97;33.83;;;;;;;11.78;nan;100053.31;5000302;28;97848;-70
2021/01/01 01:55:32;;;;;;;55.30;33.72;;;;;;;11.76;nan;100054.09;4999710;28;98717;-70
2021/01/01 01:58:01;;;;;;;53.58;33.55;;;;;;;11.74;nan;100055.75;4998970;28;97881;-70
2021/01/01 02:03:15;;;;;;;50.55;33.05;;;;;;;11.75;nan;100055.81;4998999;28;98398;-69
2021/01/01 02:05:43;;;;;;;56.70;34.08;;;;;;;11.74;nan;100056.66;4997868;28;101100;-71
2021/01/01 02:08:10;;;;;;;54.70;33.90;;;;;;;11.71;nan;100053.94;4980589;28;97840;-69
2021/01/01 02:10:38;;;;;;;62.30;34.60;;;;;;;11.70;nan;100046.88;4999299;28;97365;-70
2021/01/01 02:13:05;;;;;;;61.20;33.85;;;;;;;11.71;nan;100050.41;4982095;28;97739;-70
2021/01/01 02:15:34;;;;;;;48.20;29.73;;;;;;;11.70;nan;100049.50;4997872;28;98024;-69
2021/01/01 02:18:02;;;;;;;47.03;30.25;;;;;;;11.68;nan;100048.53;4981201;28;97293;-70
2021/01/01 02:20:29;;;;;;;49.72;30.77;;;;;;;11.69;nan;100054.72;4981487;28;97193;-70
2021/01/01 02:22:58;;;;;;;45.28;28.58;;;;;;;11.68;nan;100058.16;4980592;28;97720;-70
2021/01/01 02:25:25;;;;;;;46.25;28.33;;;;;;;11.71;nan;100053.03;4981903;28;97761;-70
2021/01/01 02:27:53;;;;;;;45.47;28.73;;;;;;;11.72;nan;100055.72;4981753;28;98041;-70
2021/01/01 02:30:20;;;;;;;47.95;29.55;;;;;;;11.71;nan;100058.28;4999756;28;97243;-69
2021/01/01 02:32:48;;;;;;;50.75;30.65;;;;;;;11.69;nan;100063.50;4997388;28;99420;-70
2021/01/01 02:35:16;;;;;;;48.75;28.90;;;;;;;11.68;nan;100060.78;4998253;28;97934;-70
2021/01/01 02:37:43;;;;;;;41.53;26.65;;;;;;;11.65;nan;100055.44;4999163;28;97704;-70
2021/01/01 02:40:12;;;;;;;45.75;28.83;;;;;;;11.63;nan;100055.34;5000336;28;97159;-70
2021/01/01 02:42:40;;;;;;;45.95;29.10;;;;;;;11.57;nan;100057.72;4999221;28;97850;-70
2021/01/01 02:45:09;;;;;;;43.15;26.77;;;;;;;11.56;nan;100060.31;4998857;28;97804;-71
2021/01/01 02:47:36;;;;;;;42.88;26.38;;;;;;;11.57;nan;100065.63;4998218;28;98320;-70
2021/01/01 02:50:05;;;;;;;48.28;28.45;;;;;;;11.61;nan;100064.91;4998332;28;97355;-70
2021/01/01 02:52:33;;;;;;;44.72;28.42;;;;;;;11.57;nan;100060.38;4999395;28;100430;-70
2021/01/01 02:55:00;;;;;;;43.90;27.02;;;;;;;11.56;nan;100062.94;4998933;28;98023;-69
2021/01/01 02:57:29;;;;;;;45.28;27.83;;;;;;;11.50;nan;100060.97;4980089;28;97266;-69
2021/01/01 02:59:56;;;;;;;40.50;26.67;;;;;;;11.47;nan;100058.25;4998214;28;98084;-70
2021/01/01 03:02:24;;;;;;;46.83;28.80;;;;;;;11.48;nan;100061.78;4994877;28;100102;-70
2021/01/01 03:04:51;;;;;;;39.20;26.25;;;;;;;11.46;nan;100060.81;4997634;28;98314;-70
2021/01/01 03:07:19;;;;;;;43.40;26.15;;;;;;;11.46;nan;100063.44;4997341;28;97389;-70
2021/01/01 03:09:46;;;;;;;44.30;27.20;;;;;;;11.47;nan;100070.50;4998893;28;97770;-70
2021/01/01 03:12:13;;;;;;;39.40;26.13;;;;;;;11.46;nan;100066.94;4980888;28;100578;-70
2021/01/01 03:14:42;;;;;;;40.05;25.88;;;;;;;11.46;nan;100072.22;4999452;28;97585;-71
2021/01/01 03:17:09;;;;;;;44.00;26.08;;;;;;;11.47;nan;100066.13;4999800;28;97123;-69
2021/01/01 03:19:36;;;;;;;43.17;27.63;;;;;;;11.47;nan;100063.50;4998903;28;97546;-70
2021/01/01 03:22:03;;;;;;;44.28;27.30;;;;;;;11.49;nan;100064.47;4996858;28;98026;-70
2021/01/01 03:24:31;;;;;;;43.72;28.58;;;;;;;11.50;nan;100063.59;4998561;28;97739;-70
2021/01/01 03:26:59;;;;;;;37.90;24.98;;;;;;;11.53;nan;100062.84;4999072;28;96900;-70
2021/01/01 03:29:27;;;;;;;41.40;25.00;;;;;;;11.55;nan;100071.69;4999609;28;97643;-70
2021/01/01 03:31:56;;;;;;;39.90;24.10;;;;;;;11.53;nan;100062.84;4998009;28;97391;-71
2021/01/01 03:34:23;;;;;;;37.80;24.23;;;;;;;11.50;nan;100063.59;4998960;28;98226;-70
2021/01/01 03:36:51;;;;;;;34.15;23.70;;;;;;;11.51;nan;100056.63;4998353;28;99370;-71
2021/01/01 03:39:18;;;;;;;36.38;22.90;;;;;;;11.50;nan;100062.69;4998124;28;97465;-71
2021/01/01 03:41:45;;;;;;;35.95;23.77;;;;;;;11.53;nan;100055.81;4980526;28;97747;-70
2021/01/01 03:44:13;;;;;;;35.08;22.00;;;;;;;11.54;nan;100057.63;4998380;28;100611;-70
2021/01/01 03:46:40;;;;;;;32.95;21.85;;;;;;;11.55;nan;100058.53;4979617;28;97414;-70
2021/01/01 03:49:09;;;;;;;31.60;21.83;;;;;;;11.57;nan;100054.22;4963498;28;97868;-69
2021/01/01 03:51:37;;;;;;;30.30;21.85;;;;;;;11.57;nan;100048.97;4980975;28;100773;-71
2021/01/01 03:54:04;;;;;;;38.50;22.50;;;;;;;11.56;nan;100052.41;5003438;28;98341;-72
2021/01/01 03:56:32;;;;;;;35.92;22.95;;;;;;;11.55;nan;100046.25;5005233;28;97534;-69
2021/01/01 03:58:59;;;;;;;33.45;21.38;;;;;;;11.54;nan;100060.25;5003208;28;97048;-70
2021/01/01 04:01:46;;;;;;;31.77;22.50;;;;;;;11.55;nan;100050.66;5002689;28;98083;-70
2021/01/01 04:04:14;;;;;;;42.00;22.55;;;;;;;11.59;nan;100058.69;4984565;28;97209;-70
2021/01/01 04:06:42;;;;;;;29.90;21.63;;;;;;;11.61;nan;100051.75;4983224;28;97316;-69
2021/01/01 04:09:09;;;;;;;31.17;21.55;;;;;;;11.62;nan;100058.81;5001265;28;97288;-71
2021/01/01 04:11:37;;;;;;;33.05;20.70;;;;;;;11.66;nan;100054.59;5001095;28;97934;-71
2021/01/01 04:14:05;;;;;;;31.85;20.00;;;;;;;11.66;nan;100052.84;5001148;28;100839;-71
2021/01/01 04:16:33;;;;;;;29.58;19.65;;;;;;;11.68;nan;100052.91;5001301;28;97832;-70
2021/01/01 04:19:00;;;;;;;28.40;20.17;;;;;;;11.68;nan;100059.06;5001582;28;96680;-70
2021/01/01 04:21:48;;;;;;;27.98;17.85;;;;;;;11.68;nan;100059.06;5002036;28;98052;-70
2021/01/01 04:24:16;;;;;;;26.08;18.50;;;;;;;11.71;nan;100064.47;5000331;28;98106;-71
2021/01/01 04:26:44;;;;;;;23.73;17.38;;;;;;;11.70;nan;100067.91;5001909;28;96924;-70
2021/01/01 04:29:12;;;;;;;27.27;19.15;;;;;;;11.74;nan;100068.91;5001431;28;97329;-70
2021/01/01 04:31:39;;;;;;;27.23;19.08;;;;;;;11.76;nan;100064.63;5000044;28;97111;-70
2021/01/01 04:34:07;;;;;;;27.95;18.27;;;;;;;11.73;nan;100070.66;5001805;28;98065;-70
2021/01/01 04:36:35;;;;;;;27.67;18.13;;;;;;;11.76;nan;100068.16;5001209;28;96769;-69
2021/01/01 04:39:04;;;;;;;27.70;19.25;;;;;;;11.75;nan;100071.59;5000771;28;97680;-70
2021/01/01 04:41:33;;;;;;;26.10;17.80;;;;;;;11.74;nan;100075.09;5001202;28;99042;-71
2021/01/01 04:44:02;;;;;;;28.10;18.42;;;;;;;11.76;nan;100076.03;5000973;28;99042;-71
2021/01/01 04:46:30;;;;;;;24.50;17.38;;;;;;;11.80;nan;100079.69;5001521;28;97550;-70
2021/01/01 04:48:58;;;;;;;25.15;17.23;;;;;;;11.78;nan;100081.34;5000458;28;97526;-71
2021/01/01 04:51:26;;;;;;;26.13;18.25;;;;;;;11.79;nan;100084.03;4982670;28;97978;-69
2021/01/01 04:53:55;;;;;;;26.67;18.45;;;;;;;11.79;nan;100083.13;5005239;28;97891;-71
2021/01/01 04:56:24;;;;;;;25.83;17.42;;;;;;;11.75;nan;100079.50;4983143;28;97504;-70
2021/01/01 04:58:53;;;;;;;28.38;18.30;;;;;;;11.71;nan;100085.50;4999851;28;97613;-71
2021/01/01 05:01:23;;;;;;;22.73;16.20;;;;;;;11.70;nan;100083.69;4997209;28;97573;-71
2021/01/01 05:03:51;;;;;;;26.33;16.45;;;;;;;11.62;nan;100090.41;4996671;28;97561;-70
2021/01/01 05:06:29;;;;;;;22.48;15.60;;;;;;;11.58;nan;100090.22;4998628;28;97259;-70
2021/01/01 05:08:59;;;;;;;23.92;15.65;;;;;;;11.53;nan;100087.38;4981168;28;97705;-70
2021/01/01 05:11:28;;;;;;;24.95;15.85;;;;;;;11.53;nan;100084.75;5001953;28;101675;-69
2021/01/01 05:13:56;;;;;;;22.38;14.73;;;;;;;11.49;nan;100077.59;5001577;28;101480;-71
2021/01/01 05:16:24;;;;;;;24.90;15.52;;;;;;;11.49;nan;100087.22;5000380;28;97956;-70
2021/01/01 05:18:52;;;;;;;21.77;14.77;;;;;;;11.51;nan;100082.94;4983400;28;97460;-70
2021/01/01 05:21:23;;;;;;;22.30;14.65;;;;;;;11.51;nan;100091.72;4982137;28;97476;-71
2021/01/01 05:23:52;;;;;;;23.45;14.73;;;;;;;11.51;nan;100090.81;4982608;28;100645;-70
2021/01/01 05:26:20;;;;;;;21.67;14.65;;;;;;;11.51;nan;100091.72;4966067;28;97174;-68
2021/01/01 05:29:10;;;;;;;25.37;18.47;;;;;;;11.57;nan;100097.19;4999051;28;97308;-69
2021/01/01 05:31:39;;;;;;;21.38;15.15;;;;;;;11.58;nan;100101.63;5000163;28;97822;-72
2021/01/01 05:34:09;;;;;;;23.88;15.65;;;;;;;11.58;nan;100100.72;4999656;28;99246;-70
2021/01/01 05:36:38;;;;;;;19.77;14.98;;;;;;;11.47;nan;100104.69;5000985;28;97348;-70
2021/01/01 05:39:07;;;;;;;20.02;14.40;;;;;;;11.48;nan;100102.09;4981791;28;97286;-71
2021/01/01 05:41:37;;;;;;;20.77;14.50;;;;;;;11.50;nan;100107.41;4999188;28;98463;-71
2021/01/01 05:44:09;;;;;;;19.30;12.45;;;;;;;11.49;nan;100103.91;5000451;28;97846;-69
2021/01/01 05:46:38;;;;;;;21.75;13.75;;;;;;;11.46;nan;100108.16;5000741;28;97402;-70
2021/01/01 05:49:05;;;;;;;17.70;13.20;;;;;;;11.45;nan;100104.63;5000856;28;97367;-70
2021/01/01 05:51:33;;;;;;;20.05;13.02;;;;;;;11.47;nan;100100.31;4997573;28;97278;-70
2021/01/01 05:54:11;;;;;;;24.92;17.58;;;;;;;11.56;nan;100111.19;4980850;28;99234;-72
2021/01/01 05:56:39;;;;;;;24.90;18.47;;;;;;;11.63;nan;100107.03;4981265;28;98108;-71
2021/01/01 05:59:10;;;;;;;19.17;13.10;;;;;;;11.60;nan;100107.84;4999293;28;97211;-71
2021/01/01 06:01:41;;;;;;;25.00;17.20;;;;;;;11.69;nan;100118.75;4998421;28;98590;-71
2021/01/01 06:04:08;;;;;;;25.02;17.30;;;;;;;11.77;nan;100116.41;4981202;28;98080;-71
2021/01/01 06:06:36;;;;;;;21.80;14.32;;;;;;;11.73;nan;100115.38;5000400;28;97168;-70
2021/01/01 06:09:05;;;;;;;22.33;14.48;;;;;;;11.68;nan;100122.19;4999835;28;97718;-70
2021/01/01 06:11:36;;;;;;;24.25;14.90;;;;;;;11.67;nan;100117.78;5000005;28;98944;-70
2021/01/01 06:14:05;;;;;;;21.92;13.88;;;;;;;11.63;nan;100118.47;5000248;28;99201;-70
2021/01/01 06:16:44;;;;;;;20.00;13.90;;;;;;;11.62;nan;100124.59;4998122;28;97876;-70
2021/01/01 06:19:12;;;;;;;20.23;14.38;;;;;;;11.64;nan;100129.91;4999528;28;97375;-70
2021/01/01 06:21:43;;;;;;;18.98;13.70;;;;;;;11.65;nan;100126.47;4998911;28;97066;-70
2021/01/01 06:24:16;;;;;;;21.15;14.07;;;;;;;11.68;nan;100131.81;4998879;28;97716;-70
2021/01/01 06:26:44;;;;;;;24.10;14.70;;;;;;;11.65;nan;100137.88;4999398;28;97378;-70
2021/01/01 06:29:16;;;;;;;20.35;13.13;;;;;;;11.65;nan;100142.25;4999445;28;97780;-70
2021/01/01 06:31:46;;;;;;;22.25;13.93;;;;;;;11.68;nan;100142.34;4997171;28;99041;-70
2021/01/01 06:34:24;;;;;;;22.92;14.38;;;;;;;11.66;nan;100144.94;4999986;28;97845;-70
2021/01/01 06:36:51;;;;;;;21.63;14.32;;;;;;;11.63;nan;100147.41;4995504;28;97567;-71
2021/01/01 06:39:37;;;;;;;21.90;14.07;;;;;;;11.57;nan;100155.06;4999560;28;97547;-71
2021/01/01 06:42:05;;;;;;;21.67;14.38;;;;;;;11.54;nan;100144.44;4997858;28;97829;-69
2021/01/01 06:44:34;;;;;;;19.08;13.52;;;;;;;11.52;nan;100151.34;4999404;28;97845;-69
2021/01/01 06:47:03;;;;;;;20.05;14.57;;;;;;;11.52;nan;100159.25;4998669;28;97418;-70
2021/01/01 06:49:34;;;;;;;19.13;13.20;;;;;;;11.52;nan;100158.34;4997921;28;96859;-69
2021/01/01 06:52:12;;;;;;;22.13;14.52;;;;;;;11.51;nan;100165.38;4980123;28;99337;-69
2021/01/01 06:54:57;;;;;;;20.98;13.63;;;;;;;11.46;nan;100158.13;4996671;28;98019;-69
2021/01/01 06:57:49;;;;;;;20.77;14.02;;;;;;;11.46;nan;100166.00;4998978;28;97244;-70
2021/01/01 07:00:53;;;;;;;21.00;14.10;;;;;;;11.45;nan;100164.19;5002963;28;97617;-70
2021/01/01 07:03:32;;;;;;;21.05;14.00;;;;;;;11.42;nan;100170.25;5000552;28;99317;-70
2021/01/01 07:06:35;;;;;;;18.63;14.48;;;;;;;11.46;nan;100176.53;5000283;28;97415;-71
2021/01/01 07:09:12;;;;;;;19.58;13.68;;;;;;;11.47;nan;100176.59;4917811;28;97330;-69
2021/01/01 07:11:44;;;;;;;22.95;13.85;;;;;;;11.48;nan;100181.00;4915986;28;98134;-69
2021/01/01 07:14:19;;;;;;;17.65;12.88;;;;;;;11.48;nan;100180.13;4960491;28;97639;-69
2021/01/01 07:17:06;;;;;;;22.05;13.82;;;;;;;11.46;nan;100187.06;4996022;28;99805;-69
2021/01/01 07:19:52;;;;;;;16.17;12.90;;;;;;;11.44;nan;100183.47;4999160;28;97873;-70
2021/01/01 07:22:20;;;;;;;21.00;13.95;;;;;;;11.38;nan;100189.38;4980298;28;97251;-71
2021/01/01 07:24:47;;;;;;;23.35;14.77;;;;;;;11.36;nan;100190.13;4997569;28;97992;-68
2021/01/01 07:27:18;;;;;;;20.40;14.38;;;;;;;11.35;nan;100185.72;4997844;28;98092;-70
2021/01/01 07:30:11;;;;;;;19.48;12.35;;;;;;;11.36;nan;100185.78;4998405;28;97368;-70
2021/01/01 07:32:39;;;;;;;17.35;13.10;;;;;;;11.36;nan;100188.41;4997588;28;97196;-68
2021/01/01 07:35:11;;;;;;;21.83;14.70;;;;;;;11.34;nan;100195.34;4996537;28;97964;-69
2021/01/01 07:37:39;;;;;;;18.05;13.23;;;;;;;11.33;nan;100200.53;5000315;28;97831;-72
2021/01/01 07:40:08;;;;;;;24.25;17.20;;;;;;;11.39;nan;100191.16;4983376;28;97839;-72
2021/01/01 07:42:47;;;;;;;26.25;18.80;;;;;;;11.43;nan;100198.34;4999800;28;97220;-71
2021/01/01 07:45:14;;;;;;;21.15;14.38;;;;;;;11.40;nan;100202.56;5000840;28;97894;-72
2021/01/01 07:47:43;;;;;;;22.05;15.38;;;;;;;11.39;nan;100211.28;4999943;28;97387;-73
2021/01/01 07:50:15;;;;;;;22.15;14.48;;;;;;;11.39;nan;100211.28;5000698;28;97012;-70
2021/01/01 07:52:43;;;;;;;21.05;14.32;;;;;;;11.40;nan;100216.63;5001029;28;96862;-72
2021/01/01 07:55:12;;;;;;;22.70;14.90;;;;;;;11.40;nan;100216.63;5000421;28;98178;-72
2021/01/01 07:57:40;;;;;;;21.13;14.38;;;;;;;11.38;nan;100214.75;5000627;28;97943;-72
2021/01/01 08:00:10;;;;;;;17.58;13.60;;;;;;;11.37;nan;100220.88;4999406;28;97234;-72
2021/01/01 08:02:41;;;;;;;23.05;14.70;;;;;;;11.31;nan;100221.53;4983665;28;97813;-73
2021/01/01 08:05:14;;;;;;;23.13;14.25;;;;;;;11.25;nan;100229.13;5001153;28;98904;-72
2021/01/01 08:07:42;;;;;;;22.10;14.02;;;;;;;11.21;nan;100232.47;5009280;28;97580;-73
2021/01/01 08:10:10;;;;;;;19.25;13.70;;;;;;;11.15;nan;100230.47;5012645;28;97052;-72
2021/01/01 08:12:38;;;;;;;20.17;14.10;;;;;;;11.16;nan;100236.66;4985861;28;97677;-73
2021/01/01 08:15:06;;;;;;;18.85;14.48;;;;;;;11.16;nan;100236.66;4982859;28;97900;-73
2021/01/01 08:17:33;;;;;;;20.13;13.38;;;;;;;11.16;nan;100244.53;4982854;28;97386;-72
2021/01/01 08:20:15;;;;;;;20.50;13.70;;;;;;;11.16;nan;100241.91;4999892;28;97199;-72
2021/01/01 08:22:44;;;;;;;22.38;14.10;;;;;;;11.15;nan;100240.09;5002148;28;97828;-73
2021/01/01 08:25:12;;;;;;;17.85;13.43;;;;;;;11.16;nan;100239.28;4981487;28;97194;-73
2021/01/01 08:27:40;;;;;;;18.73;14.00;;;;;;;11.15;nan;100242.72;4999990;28;99944;-73
2021/01/01 08:30:09;;;;;;;23.77;18.00;;;;;;;11.20;nan;100246.47;4999419;28;97658;-71
2021/01/01 08:32:37;;;;;;;25.38;17.98;;;;;;;11.29;nan;100246.84;4979946;28;97633;-73
2021/01/01 08:35:23;;;;;;;22.25;14.70;;;;;;;11.30;nan;100259.16;5000389;28;97988;-73
2021/01/01 08:37:52;;;;;;;20.95;15.05;;;;;;;11.28;nan;100255.53;4999434;28;97004;-72
2021/01/01 08:40:22;;;;;;;21.50;14.65;;;;;;;11.26;nan;100257.22;4982944;28;97579;-72
2021/01/01 08:42:53;;;;;;;23.08;14.45;;;;;;;11.27;nan;100259.03;4981810;28;97094;-73
2021/01/01 08:45:22;;;;;;;20.13;14.75;;;;;;;11.25;nan;100255.44;5000078;28;99109;-72
2021/01/01 08:47:50;;;;;;;19.98;14.18;;;;;;;11.23;nan;100259.72;4980090;28;99151;-73
2021/01/01 08:50:19;;;;;;;19.33;14.02;;;;;;;11.22;nan;100265.84;4980895;28;97509;-72
2021/01/01 08:52:47;;;;;;;20.05;13.75;;;;;;;11.20;nan;100262.25;5000004;28;97385;-74
2021/01/01 08:55:16;;;;;;;24.90;14.32;;;;;;;11.18;nan;100269.16;4983024;28;99868;-69
2021/01/01 08:57:43;;;;;;;21.85;14.50;;;;;;;11.19;nan;100265.69;4997690;28;98751;-71
2021/01/01 09:00:11;;;;;;;20.58;14.50;;;;;;;11.20;nan;100268.38;4999832;28;97000;-71
2021/01/01 09:02:38;;;;;;;30.83;20.20;;;;;;;11.31;nan;100274.09;4996793;28;97128;-72
2021/01/01 09:05:10;;;;;;;23.95;14.85;;;;;;;11.28;nan;100275.72;4981681;28;99753;-71
2021/01/01 09:07:38;;;;;;;20.80;13.90;;;;;;;11.25;nan;100276.47;4999091;28;99460;-71
2021/01/01 09:10:16;;;;;;;21.17;13.65;;;;;;;11.24;nan;100274.66;4999685;28;97386;-72
2021/01/01 09:12:44;;;;;;;21.77;14.40;;;;;;;11.25;nan;100284.34;4999758;28;97290;-73
2021/01/01 09:15:12;;;;;;;18.98;13.77;;;;;;;11.29;nan;100283.66;4999719;28;97802;-72
2021/01/01 09:17:40;;;;;;;20.42;14.07;;;;;;;11.31;nan;100291.59;5000413;28;97276;-72
2021/01/01 09:20:09;;;;;;;20.08;13.73;;;;;;;11.30;nan;100295.03;4999946;28;97105;-72
2021/01/01 09:22:38;;;;;;;17.40;13.55;;;;;;;11.30;nan;100285.44;4981983;28;97760;-72
2021/01/01 09:25:20;;;;;;;20.52;13.85;;;;;;;11.28;nan;100288.84;4982642;28;97759;-71
2021/01/01 09:27:50;;;;;;;22.02;13.93;;;;;;;11.32;nan;100294.28;4981028;28;99027;-73
2021/01/01 09:30:19;;;;;;;21.73;13.35;;;;;;;11.32;nan;100296.91;5000770;28;97807;-72
2021/01/01 09:32:48;;;;;;;19.60;13.48;;;;;;;11.34;nan;100300.50;5000732;28;97000;-71
2021/01/01 09:35:16;;;;;;;21.30;14.15;;;;;;;11.38;nan;100297.19;4980078;28;98031;-71
2021/01/01 09:37:48;;;;;;;22.42;14.15;;;;;;;11.40;nan;100303.41;4997608;28;100282;-71
2021/01/01 09:40:16;;;;;;;20.52;14.02;;;;;;;11.42;nan;100304.38;4982243;28;97724;-73
2021/01/01 09:42:44;;;;;;;22.90;14.63;;;;;;;11.45;nan;100301.88;4999360;28;98164;-70
2021/01/01 09:45:13;;;;;;;18.95;13.20;;;;;;;11.50;nan;100297.69;4997135;28;98422;-72
2021/01/01 09:47:41;;;;;;;22.02;14.38;;;;;;;11.54;nan;100304.88;4997391;28;98017;-72
2021/01/01 09:50:09;;;;;;;20.60;14.38;;;;;;;11.57;nan;100297.09;4996905;28;97649;-73
2021/01/01 09:52:37;;;;;;;19.85;13.95;;;;;;;11.61;nan;100306.91;4982133;28;98591;-74
2021/01/01 09:55:06;;;;;;;22.85;13.43;;;;;;;11.61;nan;100308.63;4979547;28;99198;-72
2021/01/01 09:57:33;;;;;;;17.98;13.52;;;;;;;11.64;nan;100314.94;4994472;28;97406;-71
2021/01/01 10:00:04;;;;;;;18.73;13.57;;;;;;;11.65;nan;100307.97;4996311;28;98139;-74
2021/01/01 10:02:39;;;;;;;19.95;13.52;;;;;;;11.63;nan;100314.88;4993897;28;98036;-72
2021/01/01 10:05:07;;;;;;;21.10;13.75;;;;;;;11.57;nan;100307.63;4980278;28;98160;-71
2021/01/01 10:07:35;;;;;;;20.05;13.80;;;;;;;11.55;nan;100304.03;4998770;28;98075;-71
2021/01/01 10:10:21;;;;;;;37.78;22.85;;;;;;;11.55;nan;100309.28;4996058;28;97849;-73
2021/01/01 10:12:49;;;;;;;23.27;15.93;;;;;;;11.46;nan;100315.91;4995045;28;97680;-73
2021/01/01 10:15:17;;;;;;;21.20;14.65;;;;;;;11.44;nan;100310.56;4996980;28;96948;-74
2021/01/01 10:17:45;;;;;;;21.17;14.90;;;;;;;11.45;nan;100312.38;4997736;28;98139;-73
2021/01/01 10:20:13;;;;;;;19.92;13.45;;;;;;;11.49;nan;100314.31;4978467;28;97907;-73
2021/01/01 10:22:40;;;;;;;21.58;15.43;;;;;;;11.53;nan;100308.31;4997080;28;97317;-76
2021/01/01 10:25:09;;;;;;;18.80;13.27;;;;;;;11.57;nan;100306.75;4979015;28;97562;-75
2021/01/01 10:27:38;;;;;;;23.98;13.98;;;;;;;11.61;nan;100314.81;4962907;28;99175;-75
2021/01/01 10:30:07;;;;;;;21.98;15.30;;;;;;;11.69;nan;100316.06;4979228;28;97020;-73
2021/01/01 10:32:35;;;;;;;19.73;14.43;;;;;;;11.72;nan;100315.28;4995686;28;97587;-73
2021/01/01 10:35:03;;;;;;;20.00;13.73;;;;;;;11.76;nan;100312.84;4979625;28;99195;-73
2021/01/01 10:37:31;;;;;;;22.02;14.52;;;;;;;11.82;nan;100313.13;4977516;28;98296;-73
2021/01/01 10:39:59;;;;;;;22.30;14.48;;;;;;;11.83;nan;100312.25;4997808;28;97770;-70
2021/01/01 10:42:28;;;;;;;20.13;13.32;;;;;;;11.90;nan;100313.38;4977981;28;97528;-72
2021/01/01 10:44:55;;;;;;;20.58;14.68;;;;;;;11.93;nan;100317.03;4993419;28;98027;-72
2021/01/01 10:47:23;;;;;;;21.20;14.02;;;;;;;11.98;nan;100318.16;4995171;28;98838;-72
2021/01/01 10:49:51;;;;;;;21.83;14.40;;;;;;;12.01;nan;100312.09;4974374;28;96936;-73
2021/01/01 10:52:19;;;;;;;23.17;15.95;;;;;;;12.04;nan;100304.34;4994848;28;97777;-71
2021/01/01 10:54:47;;;;;;;22.30;14.40;;;;;;;12.07;nan;100307.97;4992577;28;97244;-75
2021/01/01 10:57:15;;;;;;;19.83;13.05;;;;;;;12.09;nan;100305.41;4980045;28;98734;-73
2021/01/01 10:59:43;;;;;;;22.48;13.70;;;;;;;12.12;nan;100316.94;4993693;28;96928;-74
2021/01/01 11:02:10;;;;;;;19.02;13.13;;;;;;;12.08;nan;100314.13;4996535;28;97847;-75
2021/01/01 11:04:38;;;;;;;20.98;14.73;;;;;;;12.11;nan;100309.00;4979448;28;96858;-74
2021/01/01 11:07:06;;;;;;;20.00;14.43;;;;;;;12.15;nan;100300.38;4977439;28;98670;-73
2021/01/01 11:09:35;;;;;;;23.85;14.50;;;;;;;12.23;nan;100306.84;4977215;28;98471;-74
2021/01/01 11:12:04;;;;;;;20.85;13.98;;;;;;;12.35;nan;100312.59;4996481;28;97992;-74
2021/01/01 11:14:46;;;;;;;21.50;14.40;;;;;;;12.32;nan;100309.81;4994369;28;97562;-74
2021/01/01 12:24:37;;;;;;;20.77;13.80;;;;;;;12.48;nan;100311.31;4996438;28;98142;-73
2021/01/01 12:27:05;;;;;;;19.17;14.23;;;;;;;12.48;nan;100311.31;4999341;28;98231;-74
2021/01/01 12:29:33;;;;;;;19.90;13.45;;;;;;;12.48;nan;100313.94;5000092;28;97362;-73
2021/01/01 12:32:02;;;;;;;17.52;12.80;;;;;;;12.52;nan;100314.09;4997218;28;97286;-72
2021/01/01 12:34:35;;;;;;;22.77;14.05;;;;;;;12.56;nan;100320.38;4997473;28;97865;-71
2021/01/01 12:37:03;;;;;;;23.13;15.23;;;;;;;12.57;nan;100317.81;5000661;28;96908;-73
2021/01/01 12:39:30;;;;;;;21.65;14.63;;;;;;;12.56;nan;100315.13;4979927;28;99017;-74
2021/01/01 12:41:58;;;;;;;18.95;13.32;;;;;;;12.54;nan;100322.06;4997097;28;98474;-72
2021/01/01 12:44:25;;;;;;;18.50;13.52;;;;;;;12.49;nan;100318.38;4978553;28;98874;-72
2021/01/01 12:47:12;;;;;;;19.23;13.65;;;;;;;12.43;nan;100315.50;4981980;28;96979;-71